Time;durP1;ratioP1;P1;durP2;ratioP2;P2;SDS_P1;SDS_P2;PMS_P1;PMS_P2;Temp;Humidity;BMP_temperature;BMP_pressure;BME280_temperature;BME280_humidity;BME280_pressure;Samples;Min_cycle;Max_cycle;Signal;HPM_P1;HPM_P2
2023/05/31 00:02:09;;;;;;;4.27;3.87;;;13.70;99.90;;;;;;4991603;28;20623;-76
2023/05/31 00:04:36;;;;;;;4.97;4.43;;;13.70;99.90;;;;;;4991521;28;20189;-76
2023/05/31 00:07:03;;;;;;;4.60;3.63;;;13.70;99.90;;;;;;4990072;28;20213;-76
2023/05/31 00:09:29;;;;;;;5.63;4.03;;;13.70;99.90;;;;;;4991736;28;20279;-76
2023/05/31 00:11:56;;;;;;;7.87;3.90;;;13.70;99.90;;;;;;4990345;28;20205;-76
2023/05/31 00:14:23;;;;;;;3.97;3.57;;;13.70;99.90;;;;;;4985976;28;20248;-75
2023/05/31 00:16:50;;;;;;;5.23;3.53;;;13.60;99.90;;;;;;4991347;28;20202;-75
2023/05/31 00:19:18;;;;;;;4.70;4.23;;;13.60;99.90;;;;;;4984163;28;20197;-76
2023/05/31 00:21:45;;;;;;;5.53;4.30;;;13.60;99.90;;;;;;4991968;28;20216;-76
2023/05/31 00:24:12;;;;;;;6.00;4.83;;;13.60;99.90;;;;;;4985091;28;20228;-76
2023/05/31 00:26:39;;;;;;;6.47;3.97;;;13.60;99.90;;;;;;4987795;28;20206;-76
2023/05/31 00:29:06;;;;;;;5.60;3.80;;;13.50;99.90;;;;;;4995097;28;20663;-75
2023/05/31 00:31:33;;;;;;;5.10;4.60;;;13.50;99.90;;;;;;4999352;28;20205;-76
2023/05/31 00:34:00;;;;;;;5.97;4.97;;;13.40;99.90;;;;;;4994838;28;20703;-77
2023/05/31 00:36:28;;;;;;;5.40;4.90;;;13.40;99.90;;;;;;4989307;28;20737;-76
2023/05/31 00:38:55;;;;;;;4.03;3.63;;;13.40;99.90;;;;;;4988253;28;20193;-76
2023/05/31 00:41:23;;;;;;;5.13;4.20;;;13.40;99.90;;;;;;4998270;28;20201;-76
2023/05/31 00:43:50;;;;;;;4.33;3.70;;;13.50;99.90;;;;;;4988005;28;20221;-76
2023/05/31 00:46:26;;;;;;;3.57;3.27;;;13.50;99.90;;;;;;4986548;28;20644;-76
2023/05/31 00:48:53;;;;;;;5.30;3.60;;;13.50;99.90;;;;;;4993218;28;20231;-74
2023/05/31 00:51:20;;;;;;;5.03;3.40;;;13.40;99.90;;;;;;4993784;28;20205;-75
2023/05/31 00:53:48;;;;;;;4.47;4.00;;;13.40;99.90;;;;;;4994452;28;20217;-76
2023/05/31 00:56:17;;;;;;;5.40;4.10;;;13.30;99.90;;;;;;4988738;28;20635;-76
2023/05/31 00:58:45;;;;;;;4.67;4.20;;;13.20;99.90;;;;;;4989576;28;20195;-76
2023/05/31 01:01:13;;;;;;;4.87;3.60;;;13.20;99.90;;;;;;4993602;28;20236;-76
2023/05/31 01:03:41;;;;;;;6.20;4.83;;;13.10;99.90;;;;;;4997287;28;20213;-75
2023/05/31 01:06:08;;;;;;;6.80;5.60;;;13.10;99.90;;;;;;4993967;28;20220;-76
2023/05/31 01:08:36;;;;;;;5.23;4.23;;;13.10;99.90;;;;;;4994312;28;20249;-75
2023/05/31 01:11:18;;;;;;;5.03;4.63;;;13.00;99.90;;;;;;4990620;28;20201;-76
2023/05/31 01:13:53;;;;;;;5.17;4.73;;;13.00;99.90;;;;;;4992465;28;20216;-75
2023/05/31 01:16:31;;;;;;;4.40;3.50;;;12.90;99.90;;;;;;4986865;28;20857;-76
2023/05/31 01:19:03;;;;;;;5.67;3.13;;;12.90;99.90;;;;;;4992784;28;20333;-75
2023/05/31 01:21:43;;;;;;;5.30;3.60;;;12.80;99.90;;;;;;4992863;28;20668;-75
2023/05/31 01:24:23;;;;;;;4.63;4.20;;;12.80;99.90;;;;;;4992511;28;20283;-75
2023/05/31 01:26:53;;;;;;;5.43;4.87;;;12.80;99.90;;;;;;4989416;28;20617;-76
2023/05/31 01:29:23;;;;;;;5.60;3.33;;;12.80;99.90;;;;;;4984689;28;20694;-76
2023/05/31 01:31:52;;;;;;;4.33;3.87;;;12.70;99.90;;;;;;4992786;28;20201;-75
2023/05/31 01:34:19;;;;;;;4.73;3.97;;;12.70;99.90;;;;;;4992282;28;20590;-76
2023/05/31 01:36:46;;;;;;;4.10;3.73;;;12.70;99.90;;;;;;4986354;28;20211;-75
2023/05/31 01:39:13;;;;;;;5.60;5.10;;;12.70;99.90;;;;;;4986222;28;20400;-75
2023/05/31 01:41:41;;;;;;;5.17;4.67;;;12.70;99.90;;;;;;4987211;28;20202;-76
2023/05/31 01:44:11;;;;;;;4.33;3.60;;;12.70;99.90;;;;;;4990748;28;20232;-76
2023/05/31 01:46:39;;;;;;;4.53;2.90;;;12.70;99.90;;;;;;4993111;28;20197;-76
2023/05/31 01:49:06;;;;;;;4.27;3.00;;;12.60;99.90;;;;;;4992235;28;20766;-76
2023/05/31 01:51:37;;;;;;;3.60;2.90;;;12.70;99.90;;;;;;4988356;28;20205;-76
2023/05/31 01:54:04;;;;;;;4.60;2.80;;;12.60;99.90;;;;;;4996054;28;20712;-75
2023/05/31 01:56:32;;;;;;;4.97;4.37;;;12.60;99.90;;;;;;4991887;28;20199;-76
2023/05/31 01:59:00;;;;;;;5.60;5.10;;;12.50;99.90;;;;;;4991745;28;20199;-76
2023/05/31 02:01:29;;;;;;;4.40;4.00;;;12.50;99.90;;;;;;4991989;28;20321;-76
2023/05/31 02:03:58;;;;;;;3.70;3.40;;;12.50;99.90;;;;;;4991837;28;20240;-76
2023/05/31 02:06:27;;;;;;;3.77;3.40;;;12.40;99.90;;;;;;4991590;28;20201;-76
2023/05/31 02:08:54;;;;;;;5.60;5.10;;;12.40;99.90;;;;;;4991806;28;20219;-76
2023/05/31 02:11:25;;;;;;;6.50;5.20;;;12.40;99.90;;;;;;4991987;28;20207;-76
2023/05/31 02:13:55;;;;;;;5.20;4.80;;;12.40;99.90;;;;;;4987273;28;20743;-75
2023/05/31 02:16:22;;;;;;;5.50;4.40;;;12.40;99.90;;;;;;4984057;28;20296;-76
2023/05/31 02:18:51;;;;;;;4.87;4.37;;;12.30;99.90;;;;;;4991325;28;20196;-75
2023/05/31 02:21:22;;;;;;;4.80;4.03;;;12.30;99.90;;;;;;4983990;28;20762;-76
2023/05/31 02:23:49;;;;;;;5.30;4.80;;;12.30;99.90;;;;;;4992995;28;20213;-76
2023/05/31 02:26:16;;;;;;;4.50;4.10;;;12.20;99.90;;;;;;4992449;28;20675;-75
2023/05/31 02:28:43;;;;;;;3.90;2.90;;;12.20;99.90;;;;;;4986408;28;20230;-76
2023/05/31 02:31:10;;;;;;;5.50;3.40;;;12.10;99.90;;;;;;4998085;28;20224;-76
2023/05/31 02:33:37;;;;;;;4.97;3.07;;;12.10;99.90;;;;;;4987154;28;20224;-76
2023/05/31 02:36:06;;;;;;;4.77;2.80;;;12.10;99.90;;;;;;4991187;28;20204;-76
2023/05/31 02:38:33;;;;;;;3.20;2.87;;;12.10;99.90;;;;;;4992451;28;20228;-76
2023/05/31 02:41:00;;;;;;;4.47;3.10;;;12.10;99.90;;;;;;4986659;28;20648;-75
2023/05/31 02:43:26;;;;;;;4.73;2.70;;;12.10;99.90;;;;;;4991872;28;20221;-76
2023/05/31 02:45:53;;;;;;;3.10;2.80;;;12.10;99.90;;;;;;4992405;28;20221;-76
2023/05/31 02:48:21;;;;;;;4.33;2.60;;;12.10;99.90;;;;;;4990687;28;20199;-76
2023/05/31 02:50:48;;;;;;;3.80;2.90;;;12.10;99.90;;;;;;4997762;28;20267;-76
2023/05/31 02:53:30;;;;;;;3.63;3.20;;;12.10;99.90;;;;;;4985750;28;20315;-77
2023/05/31 02:56:03;;;;;;;3.60;3.10;;;12.00;99.90;;;;;;4992860;28;20204;-79
2023/05/31 02:58:47;;;;;;;3.93;3.20;;;12.00;99.90;;;;;;4991991;28;20624;-78
2023/05/31 03:01:17;;;;;;;4.23;3.43;;;11.90;99.90;;;;;;4988633;28;20663;-78
2023/05/31 03:03:57;;;;;;;4.23;3.47;;;11.90;99.90;;;;;;4996156;28;20573;-79
2023/05/31 03:06:28;;;;;;;4.90;3.90;;;11.90;99.90;;;;;;4996498;28;20787;-79
2023/05/31 03:08:58;;;;;;;4.37;3.70;;;11.80;99.90;;;;;;4990565;28;20224;-79
2023/05/31 03:11:25;;;;;;;6.93;2.93;;;11.80;99.90;;;;;;4999575;28;20702;-79
2023/05/31 03:13:52;;;;;;;4.40;3.53;;;11.80;99.90;;;;;;4981513;28;20221;-80
2023/05/31 03:16:21;;;;;;;4.17;3.20;;;11.80;99.90;;;;;;4991720;28;20212;-78
2023/05/31 03:18:48;;;;;;;3.20;2.80;;;11.80;99.90;;;;;;4994702;28;20189;-78
2023/05/31 03:21:15;;;;;;;4.03;3.00;;;11.80;99.90;;;;;;4989863;28;20759;-78
2023/05/31 03:23:42;;;;;;;2.93;2.50;;;11.70;99.90;;;;;;4994329;28;20307;-79
2023/05/31 03:26:12;;;;;;;3.87;2.83;;;11.70;99.90;;;;;;4994310;28;20205;-78
2023/05/31 03:28:38;;;;;;;3.87;2.63;;;11.70;99.90;;;;;;5004089;28;20243;-78
2023/05/31 03:31:05;;;;;;;4.00;2.80;;;11.70;99.90;;;;;;4997741;28;20231;-79
2023/05/31 03:33:33;;;;;;;5.97;3.07;;;11.70;99.90;;;;;;5001069;28;20212;-78
2023/05/31 03:36:00;;;;;;;4.63;2.93;;;11.70;99.90;;;;;;4998016;28;20277;-78
2023/05/31 03:38:27;;;;;;;4.53;2.80;;;11.70;99.90;;;;;;4995068;28;20201;-78
2023/05/31 03:40:54;;;;;;;3.17;2.50;;;11.70;99.90;;;;;;4999807;28;20667;-79
2023/05/31 03:43:22;;;;;;;4.20;2.47;;;11.80;99.90;;;;;;5000043;28;20225;-79
2023/05/31 03:45:49;;;;;;;5.33;2.70;;;11.80;99.90;;;;;;4996088;28;20201;-79
2023/05/31 03:48:16;;;;;;;5.03;2.93;;;11.80;99.90;;;;;;4995327;28;20211;-78
2023/05/31 03:50:44;;;;;;;4.23;2.70;;;11.80;99.90;;;;;;4994975;28;20275;-76
2023/05/31 03:53:11;;;;;;;4.07;2.60;;;11.90;99.90;;;;;;4990141;28;20224;-76
2023/05/31 03:55:38;;;;;;;3.50;2.97;;;11.90;99.90;;;;;;4989887;28;20200;-76
2023/05/31 03:58:05;;;;;;;4.70;3.23;;;12.00;99.90;;;;;;4987195;28;20205;-76
2023/05/31 04:00:36;;;;;;;3.60;2.63;;;12.00;99.90;;;;;;4997038;28;20192;-76
2023/05/31 04:03:03;;;;;;;4.27;2.57;;;12.00;99.90;;;;;;4989364;28;20232;-76
2023/05/31 04:05:30;;;;;;;4.13;2.60;;;12.10;99.90;;;;;;4998130;28;20197;-75
2023/05/31 04:07:59;;;;;;;2.70;2.30;;;12.20;99.90;;;;;;5000615;28;20585;-75
2023/05/31 04:10:26;;;;;;;4.03;3.10;;;12.20;99.90;;;;;;4986660;28;20271;-75
2023/05/31 04:12:52;;;;;;;4.40;3.90;;;12.20;99.90;;;;;;4998602;28;20300;-75
2023/05/31 04:15:20;;;;;;;4.50;2.80;;;12.30;99.90;;;;;;4993599;28;20205;-75
2023/05/31 04:17:48;;;;;;;4.83;3.23;;;12.30;99.90;;;;;;4993682;28;20211;-75
2023/05/31 04:20:16;;;;;;;4.07;2.73;;;12.40;99.90;;;;;;4993711;28;20197;-75
2023/05/31 04:22:43;;;;;;;2.93;2.50;;;12.40;99.90;;;;;;4993580;28;20275;-75
2023/05/31 04:25:12;;;;;;;4.87;4.47;;;12.50;99.90;;;;;;4997006;28;20204;-76
2023/05/31 04:27:41;;;;;;;4.60;4.23;;;12.60;99.90;;;;;;4994116;28;20196;-75
2023/05/31 04:30:09;;;;;;;6.60;3.73;;;12.70;99.90;;;;;;4993504;28;20272;-75
2023/05/31 04:32:36;;;;;;;5.53;2.60;;;12.70;99.90;;;;;;4993633;28;20221;-75
2023/05/31 04:35:08;;;;;;;9.87;4.50;;;12.80;99.90;;;;;;4993363;28;20211;-75
2023/05/31 04:37:39;;;;;;;4.27;2.90;;;12.90;99.90;;;;;;4986623;28;20690;-75
2023/05/31 04:40:09;;;;;;;4.20;2.70;;;13.00;99.90;;;;;;4989413;28;20204;-75
2023/05/31 04:42:38;;;;;;;3.83;2.83;;;13.20;99.90;;;;;;4993019;28;20647;-75
2023/05/31 04:45:07;;;;;;;3.53;2.53;;;13.30;99.90;;;;;;4987255;28;20197;-75
2023/05/31 04:47:41;;;;;;;4.20;2.87;;;13.50;99.90;;;;;;4983781;28;20198;-75
2023/05/31 04:50:10;;;;;;;4.40;2.60;;;13.80;99.90;;;;;;4990518;28;20213;-75
2023/05/31 04:52:39;;;;;;;4.43;2.77;;;14.10;99.90;;;;;;4994546;28;20282;-75
2023/05/31 04:55:08;;;;;;;4.33;2.90;;;14.40;99.90;;;;;;5000143;28;20205;-75
2023/05/31 04:57:36;;;;;;;3.57;2.70;;;14.80;99.90;;;;;;4992876;28;20212;-75
2023/05/31 05:00:08;;;;;;;4.80;2.80;;;15.10;99.90;;;;;;4993264;28;20255;-75
2023/05/31 05:02:36;;;;;;;3.83;2.70;;;15.20;99.90;;;;;;4993226;28;20716;-75
2023/05/31 05:05:06;;;;;;;3.07;2.40;;;15.20;99.90;;;;;;4986977;28;20211;-75
2023/05/31 05:07:35;;;;;;;4.93;2.57;;;15.20;99.90;;;;;;5001090;28;20225;-75
2023/05/31 05:10:03;;;;;;;3.33;2.63;;;15.10;99.90;;;;;;4996142;28;20584;-75
2023/05/31 05:12:31;;;;;;;4.53;2.80;;;15.00;99.90;;;;;;4993565;28;20309;-75
2023/05/31 05:14:58;;;;;;;2.90;2.60;;;15.10;99.90;;;;;;4997309;28;20214;-75
2023/05/31 05:17:26;;;;;;;4.77;2.60;;;15.20;99.90;;;;;;4992777;28;20211;-75
2023/05/31 05:19:53;;;;;;;4.03;2.70;;;15.40;99.90;;;;;;4992908;28;20206;-75
2023/05/31 05:22:21;;;;;;;3.90;2.80;;;15.60;99.90;;;;;;4998639;28;20211;-75
2023/05/31 05:24:49;;;;;;;3.57;2.40;;;15.70;99.90;;;;;;4987286;28;20197;-75
2023/05/31 05:27:16;;;;;;;5.67;2.90;;;15.90;99.90;;;;;;4987029;28;20234;-75
2023/05/31 05:29:43;;;;;;;4.03;2.63;;;15.90;99.90;;;;;;4993119;28;20227;-75
2023/05/31 05:32:10;;;;;;;3.83;2.90;;;15.90;99.90;;;;;;4992854;28;20248;-75
2023/05/31 05:34:37;;;;;;;3.77;2.50;;;15.90;99.90;;;;;;4987245;28;20284;-75
2023/05/31 05:37:06;;;;;;;3.27;2.80;;;16.00;99.90;;;;;;4992516;28;20233;-76
2023/05/31 05:39:33;;;;;;;3.03;2.63;;;16.20;99.90;;;;;;4985541;28;20196;-75
2023/05/31 05:42:02;;;;;;;4.70;2.73;;;16.50;99.90;;;;;;4993529;28;20209;-76
2023/05/31 05:44:29;;;;;;;5.20;2.83;;;16.80;99.90;;;;;;4996149;28;20719;-76
2023/05/31 05:46:56;;;;;;;5.60;2.90;;;17.40;99.90;;;;;;4996471;28;20206;-76
2023/05/31 05:49:24;;;;;;;4.47;2.83;;;18.10;99.90;;;;;;4993023;28;20286;-76
2023/05/31 05:51:51;;;;;;;4.00;2.50;;;18.70;99.90;;;;;;4992008;28;20221;-76
2023/05/31 05:54:18;;;;;;;7.23;3.40;;;19.20;99.90;;;;;;4991795;28;20316;-76
2023/05/31 05:56:45;;;;;;;9.23;2.90;;;19.70;99.90;;;;;;4991802;28;20662;-75
2023/05/31 05:59:14;;;;;;;3.93;3.00;;;20.10;99.90;;;;;;4987597;28;20201;-76
2023/05/31 06:01:53;;;;;;;3.67;2.70;;;20.60;99.90;;;;;;4993415;28;20193;-76
2023/05/31 06:04:23;;;;;;;4.33;2.80;;;20.80;99.90;;;;;;4991603;28;20224;-76
2023/05/31 06:06:51;;;;;;;6.77;2.80;;;20.70;99.90;;;;;;4991514;28;20221;-76
2023/05/31 06:09:18;;;;;;;4.10;2.60;;;20.80;99.90;;;;;;4991785;28;20194;-76
2023/05/31 06:11:45;;;;;;;3.87;2.87;;;20.80;99.90;;;;;;4991524;28;20594;-76
2023/05/31 06:14:14;;;;;;;3.70;2.63;;;20.90;99.60;;;;;;4990764;28;20225;-76
2023/05/31 06:16:46;;;;;;;6.03;2.73;;;20.70;99.40;;;;;;4991900;28;20668;-76
2023/05/31 06:19:13;;;;;;;5.00;2.90;;;20.80;99.90;;;;;;4985429;28;20292;-76
2023/05/31 06:21:41;;;;;;;3.97;2.83;;;20.90;99.90;;;;;;4985043;28;20685;-76
2023/05/31 06:24:08;;;;;;;3.53;2.97;;;21.30;99.90;;;;;;4986972;28;20514;-76
2023/05/31 06:26:36;;;;;;;5.90;2.67;;;21.50;99.80;;;;;;4991087;28;20193;-76
2023/05/31 06:29:04;;;;;;;4.80;2.80;;;21.90;98.90;;;;;;4991735;28;20221;-76
2023/05/31 06:31:51;;;;;;;3.57;2.93;;;22.20;99.00;;;;;;4992673;28;20212;-76
2023/05/31 06:34:17;;;;;;;4.57;2.40;;;22.20;98.60;;;;;;4990910;28;20222;-76
2023/05/31 06:36:44;;;;;;;4.40;3.07;;;22.40;98.70;;;;;;4991477;28;20283;-76
2023/05/31 06:39:11;;;;;;;5.93;2.60;;;22.60;97.80;;;;;;4992616;28;20197;-76
2023/05/31 06:41:38;;;;;;;4.23;2.70;;;22.90;98.40;;;;;;4983715;28;20204;-76
2023/05/31 06:44:25;;;;;;;5.03;3.20;;;23.10;98.50;;;;;;4992005;28;20252;-75
2023/05/31 06:47:01;;;;;;;4.33;2.80;;;23.30;97.80;;;;;;4991109;28;20200;-76
2023/05/31 06:49:51;;;;;;;3.47;2.50;;;23.70;98.50;;;;;;4968966;28;20236;-76
2023/05/31 06:52:41;;;;;;;3.93;2.73;;;23.60;98.00;;;;;;4967119;28;20224;-76
2023/05/31 06:55:26;;;;;;;7.37;3.40;;;23.70;96.80;;;;;;4992127;28;20710;-76
2023/05/31 06:57:53;;;;;;;4.80;2.90;;;23.80;96.10;;;;;;4996812;28;20260;-76
2023/05/31 07:00:20;;;;;;;6.23;3.27;;;23.50;95.90;;;;;;4992497;28;20196;-76
2023/05/31 07:02:50;;;;;;;4.90;3.00;;;23.60;96.60;;;;;;4995394;28;20279;-76
2023/05/31 07:05:16;;;;;;;5.23;3.00;;;24.10;97.70;;;;;;4998185;28;20192;-76
2023/05/31 07:07:47;;;;;;;5.17;3.33;;;24.30;96.40;;;;;;4991830;28;20201;-76
2023/05/31 07:10:15;;;;;;;7.90;4.30;;;24.30;96.50;;;;;;4992666;28;20201;-76
2023/05/31 07:12:42;;;;;;;5.90;3.47;;;24.80;95.90;;;;;;4993141;28;20263;-76
2023/05/31 07:15:09;;;;;;;4.03;3.20;;;25.00;96.10;;;;;;4984147;28;20727;-76
2023/05/31 07:17:37;;;;;;;5.33;3.37;;;24.80;95.00;;;;;;4992245;28;20209;-76
2023/05/31 07:20:07;;;;;;;5.73;3.27;;;24.60;97.10;;;;;;4991959;28;20683;-76
2023/05/31 07:22:34;;;;;;;5.57;3.60;;;24.70;96.00;;;;;;4993274;28;20263;-76
2023/05/31 07:25:01;;;;;;;4.50;2.80;;;24.90;96.20;;;;;;4992958;28;20232;-77
2023/05/31 07:27:27;;;;;;;5.87;3.03;;;25.10;97.10;;;;;;4985176;28;20286;-76
2023/05/31 07:29:54;;;;;;;5.73;2.90;;;25.10;95.00;;;;;;4993650;28;20208;-77
2023/05/31 07:32:21;;;;;;;7.80;3.03;;;24.60;95.50;;;;;;4998890;28;20216;-76
2023/05/31 07:34:48;;;;;;;6.27;3.23;;;24.60;96.10;;;;;;5002671;28;20263;-77
2023/05/31 07:37:16;;;;;;;6.17;3.03;;;25.00;95.40;;;;;;5006090;28;20649;-76
2023/05/31 07:39:44;;;;;;;5.83;3.30;;;24.70;95.40;;;;;;4997861;28;20201;-76
2023/05/31 07:42:12;;;;;;;6.47;3.30;;;24.60;95.00;;;;;;5004214;28;20679;-77
2023/05/31 07:44:39;;;;;;;4.47;2.83;;;24.40;94.40;;;;;;5000968;28;20288;-76
2023/05/31 07:47:06;;;;;;;5.53;3.30;;;24.70;96.60;;;;;;5001696;28;20201;-77
2023/05/31 07:49:33;;;;;;;4.63;3.00;;;25.10;95.00;;;;;;5000523;28;20189;-75
2023/05/31 07:52:00;;;;;;;4.43;3.30;;;25.10;95.80;;;;;;5003612;28;20257;-76
2023/05/31 07:54:29;;;;;;;6.90;2.90;;;25.30;94.20;;;;;;5001299;28;20667;-76
2023/05/31 07:56:56;;;;;;;7.40;3.33;;;25.20;96.20;;;;;;5002043;28;20205;-77
2023/05/31 07:59:25;;;;;;;5.77;3.23;;;25.30;94.20;;;;;;4999856;28;20253;-79
2023/05/31 08:01:52;;;;;;;4.50;3.30;;;25.30;96.10;;;;;;5007096;28;20229;-79
2023/05/31 08:04:19;;;;;;;3.40;2.80;;;25.50;94.80;;;;;;4999892;28;20225;-80
2023/05/31 08:06:45;;;;;;;5.97;3.17;;;25.90;96.10;;;;;;4999172;28;20196;-76
2023/05/31 08:09:15;;;;;;;7.40;3.20;;;25.90;93.80;;;;;;5001485;28;20255;-76
2023/05/31 08:11:45;;;;;;;5.40;3.20;;;26.00;95.10;;;;;;5000330;28;20752;-76
2023/05/31 08:14:12;;;;;;;6.03;3.30;;;26.30;95.70;;;;;;4995910;28;20225;-76
2023/05/31 08:16:39;;;;;;;4.83;3.40;;;26.20;92.30;;;;;;5002498;28;20259;-76
2023/05/31 08:19:08;;;;;;;6.50;3.43;;;26.40;95.20;;;;;;5000180;28;20656;-76
2023/05/31 08:21:36;;;;;;;6.70;3.53;;;26.40;93.00;;;;;;5005531;28;20895;-76
2023/05/31 08:24:03;;;;;;;5.27;3.37;;;26.60;92.10;;;;;;5000866;28;20645;-76
2023/05/31 08:26:29;;;;;;;5.63;3.20;;;26.60;91.20;;;;;;5003496;28;20231;-80
2023/05/31 08:28:57;;;;;;;5.43;3.37;;;26.40;92.20;;;;;;4991071;28;20591;-80
2023/05/31 08:31:24;;;;;;;6.43;3.47;;;26.50;91.80;;;;;;5005320;28;20235;-79
2023/05/31 08:33:55;;;;;;;6.60;3.50;;;26.60;91.30;;;;;;4998350;28;20235;-79
2023/05/31 08:36:22;;;;;;;5.30;3.20;;;26.80;90.40;;;;;;5002774;28;20223;-79
2023/05/31 08:38:56;;;;;;;4.87;3.33;;;27.10;94.10;;;;;;4992138;28;20228;-79
2023/05/31 08:41:24;;;;;;;4.07;3.20;;;26.70;90.90;;;;;;5002957;28;20208;-79
2023/05/31 08:43:50;;;;;;;4.37;3.03;;;26.40;92.20;;;;;;5008855;28;20245;-80
2023/05/31 08:46:20;;;;;;;4.00;3.00;;;26.60;91.40;;;;;;5001631;28;20210;-80
2023/05/31 08:49:01;;;;;;;5.57;3.20;;;26.90;91.00;;;;;;5003034;28;20202;-80
2023/05/31 08:51:28;;;;;;;8.10;3.50;;;26.90;90.30;;;;;;5006681;28;20698;-79
2023/05/31 08:53:57;;;;;;;5.73;3.50;;;26.90;90.90;;;;;;5002634;28;20225;-80
2023/05/31 08:56:28;;;;;;;7.13;3.40;;;27.30;90.70;;;;;;5002295;28;20618;-80
2023/05/31 08:58:55;;;;;;;10.33;3.67;;;27.30;88.90;;;;;;4992820;28;20193;-79
2023/05/31 09:01:24;;;;;;;4.97;3.30;;;26.90;87.10;;;;;;4995784;28;20202;-80
2023/05/31 09:03:54;;;;;;;7.23;3.73;;;26.90;91.00;;;;;;5005506;28;20212;-82
2023/05/31 09:06:23;;;;;;;7.73;4.10;;;26.60;89.00;;;;;;5004835;28;20201;-81
2023/05/31 09:08:50;;;;;;;10.30;3.53;;;26.70;89.50;;;;;;5007943;28;20203;-81
2023/05/31 09:11:17;;;;;;;8.20;3.67;;;26.50;91.00;;;;;;5003004;28;20217;-81
2023/05/31 09:13:44;;;;;;;7.30;3.40;;;26.30;87.00;;;;;;5004067;28;20241;-81
2023/05/31 09:16:12;;;;;;;6.17;3.57;;;26.80;91.30;;;;;;5002208;28;20205;-81
2023/05/31 09:18:41;;;;;;;5.97;3.30;;;26.90;88.50;;;;;;5002952;28;20221;-81
2023/05/31 09:21:10;;;;;;;5.70;3.40;;;27.00;88.90;;;;;;5002705;28;20722;-81
2023/05/31 09:23:41;;;;;;;4.73;3.13;;;26.90;85.80;;;;;;4999585;28;20595;-81
2023/05/31 09:26:08;;;;;;;4.43;3.10;;;27.10;87.10;;;;;;4999693;28;20229;-81
2023/05/31 09:28:36;;;;;;;5.80;3.33;;;26.50;85.50;;;;;;5001140;28;20216;-81
2023/05/31 09:31:04;;;;;;;5.87;3.40;;;26.80;89.00;;;;;;5000691;28;20229;-82
2023/05/31 09:33:40;;;;;;;5.50;3.20;;;26.50;88.60;;;;;;4999405;28;20297;-81
2023/05/31 09:36:08;;;;;;;4.83;2.97;;;26.60;90.10;;;;;;4995094;28;20212;-80
2023/05/31 09:38:37;;;;;;;4.77;3.07;;;27.30;90.10;;;;;;5002140;28;20205;-81
2023/05/31 09:41:15;;;;;;;6.37;3.43;;;27.50;88.60;;;;;;5001148;28;20279;-81
2023/05/31 09:43:43;;;;;;;7.10;3.07;;;27.10;89.70;;;;;;5000115;28;20275;-81
2023/05/31 09:46:14;;;;;;;5.03;2.90;;;27.10;86.40;;;;;;4995264;28;20330;-80
2023/05/31 09:48:43;;;;;;;5.90;3.17;;;27.20;89.50;;;;;;4999985;28;20210;-81
2023/05/31 09:51:11;;;;;;;6.33;3.20;;;27.20;87.60;;;;;;5000443;28;20332;-80
2023/05/31 09:53:41;;;;;;;4.87;3.23;;;27.10;84.00;;;;;;5000228;28;20225;-80
2023/05/31 09:56:11;;;;;;;5.30;3.30;;;27.00;86.60;;;;;;5000185;28;20208;-81
2023/05/31 09:58:40;;;;;;;7.33;3.27;;;26.30;84.00;;;;;;4999746;28;20256;-81
2023/05/31 10:01:07;;;;;;;6.73;3.30;;;25.50;87.70;;;;;;4995147;28;20197;-80
2023/05/31 10:03:36;;;;;;;7.30;3.20;;;25.70;85.60;;;;;;5007189;28;20221;-82
2023/05/31 10:06:05;;;;;;;6.03;3.93;;;26.10;87.50;;;;;;4992776;28;20716;-82
2023/05/31 10:08:32;;;;;;;6.87;5.40;;;26.50;86.80;;;;;;5002140;28;20209;-80
2023/05/31 10:11:01;;;;;;;7.83;5.70;;;26.80;84.50;;;;;;4994065;28;20227;-82
2023/05/31 10:13:29;;;;;;;6.57;5.40;;;26.50;83.90;;;;;;4999072;28;20217;-81
2023/05/31 10:15:58;;;;;;;7.50;5.50;;;26.60;84.80;;;;;;4999816;28;20247;-82
2023/05/31 10:18:29;;;;;;;7.63;5.87;;;26.20;84.60;;;;;;5006662;28;20208;-81
2023/05/31 10:21:02;;;;;;;4.97;3.83;;;26.00;85.30;;;;;;4994293;28;20260;-79
2023/05/31 10:23:35;;;;;;;4.53;3.00;;;25.90;86.00;;;;;;5002276;28;20217;-82
2023/05/31 10:26:13;;;;;;;8.70;4.17;;;26.00;86.40;;;;;;5009038;28;20200;-80
2023/05/31 10:28:47;;;;;;;5.80;4.30;;;26.00;87.30;;;;;;5000904;28;20203;-79
2023/05/31 10:32:18;;;;;;;5.27;2.90;;;26.20;86.60;;;;;;5004201;28;20197;-79
2023/05/31 10:35:44;;;;;;;7.23;6.60;;;25.50;84.60;;;;;;4901082;29;20208;-81
2023/05/31 10:38:42;;;;;;;6.73;3.20;;;25.50;88.70;;;;;;4998266;28;20237;-80
2023/05/31 10:52:38;;;;;;;5.57;3.30;;;25.50;87.00;;;;;;4984604;28;20229;-80
2023/05/31 10:59:17;;;;;;;;;;;;;;;;;;;;;
2023/05/31 11:01:54;;;;;;;3.63;2.93;;;25.20;88.70;;;;;;4998537;28;20259;-79
2023/05/31 11:04:49;;;;;;;;;;;;;;;;;;;;;
2023/05/31 11:07:32;;;;;;;5.70;3.00;;;25.50;85.50;;;;;;5003212;28;20211;-81
2023/05/31 11:10:43;;;;;;;6.10;2.80;;;24.90;85.70;;;;;;4993377;28;20212;-82
2023/05/31 11:13:43;;;;;;;4.67;2.90;;;25.20;86.10;;;;;;4995048;28;20260;-79
2023/05/31 11:17:14;;;;;;;3.87;3.17;;;25.20;87.30;;;;;;4997945;28;20205;-80
2023/05/31 11:19:43;;;;;;;4.90;2.80;;;25.00;83.80;;;;;;5000445;28;20497;-80
2023/05/31 11:22:12;;;;;;;5.90;2.97;;;25.00;86.80;;;;;;5004258;28;20199;-80
2023/05/31 11:24:40;;;;;;;7.17;3.33;;;24.90;84.40;;;;;;4999280;28;20269;-81
2023/05/31 11:27:13;;;;;;;4.90;3.13;;;24.90;85.70;;;;;;5000114;28;20212;-80
2023/05/31 11:29:59;;;;;;;7.43;3.53;;;25.00;87.30;;;;;;5001055;28;20829;-78
2023/05/31 11:32:55;;;;;;;4.70;3.10;;;24.80;86.00;;;;;;4999018;28;20217;-79
2023/05/31 11:35:23;;;;;;;4.10;3.07;;;25.00;85.90;;;;;;5000772;28;20274;-80
2023/05/31 11:37:51;;;;;;;4.50;3.07;;;24.90;87.20;;;;;;5000573;28;20206;-80
2023/05/31 11:40:18;;;;;;;7.93;6.43;;;24.80;83.10;;;;;;5002004;28;20262;-79
2023/05/31 11:42:47;;;;;;;5.53;3.10;;;24.60;84.40;;;;;;4998898;28;20228;-80
2023/05/31 11:45:17;;;;;;;4.87;2.77;;;24.70;84.40;;;;;;5001495;28;20225;-81
2023/05/31 11:47:54;;;;;;;12.30;3.33;;;24.40;84.90;;;;;;5003434;28;20675;-80
2023/05/31 11:50:21;;;;;;;4.70;3.07;;;24.50;83.30;;;;;;4992629;28;20205;-80
2023/05/31 11:52:48;;;;;;;6.33;3.10;;;24.50;86.30;;;;;;4992827;28;20224;-79
2023/05/31 11:55:17;;;;;;;4.87;2.90;;;24.30;84.00;;;;;;5002118;28;20196;-79
2023/05/31 11:57:51;;;;;;;7.00;2.90;;;24.40;87.90;;;;;;5001799;28;20664;-80
2023/05/31 12:00:21;;;;;;;5.50;4.50;;;24.50;83.90;;;;;;4991965;28;20206;-81
2023/05/31 12:02:56;;;;;;;6.20;5.60;;;24.40;82.30;;;;;;4996222;28;20213;-81
2023/05/31 12:05:24;;;;;;;6.07;5.63;;;24.50;85.60;;;;;;5001864;28;20573;-80
2023/05/31 12:07:55;;;;;;;5.17;4.47;;;24.60;85.00;;;;;;5006466;28;20251;-80
2023/05/31 12:10:25;;;;;;;7.23;5.20;;;24.60;86.50;;;;;;5000177;28;20216;-81
2023/05/31 12:12:53;;;;;;;8.30;4.70;;;24.70;86.70;;;;;;4997486;28;20228;-81
2023/05/31 12:15:26;;;;;;;4.70;4.30;;;24.40;84.40;;;;;;4997133;28;20224;-83
2023/05/31 12:17:52;;;;;;;6.77;5.30;;;24.30;84.10;;;;;;4997839;28;20221;-81
2023/05/31 12:20:19;;;;;;;5.37;4.87;;;24.30;84.00;;;;;;5006309;28;20280;-80
2023/05/31 12:22:46;;;;;;;9.03;5.53;;;24.50;85.10;;;;;;5007159;28;20254;-80
2023/05/31 12:25:13;;;;;;;6.13;5.53;;;24.40;82.40;;;;;;5001456;28;20288;-80
2023/05/31 12:27:40;;;;;;;5.57;4.83;;;24.40;83.50;;;;;;4999128;28;20200;-80
2023/05/31 12:30:17;;;;;;;5.20;3.70;;;24.40;83.50;;;;;;5000919;28;20201;-80
2023/05/31 12:32:45;;;;;;;6.20;3.37;;;24.50;85.10;;;;;;5001444;28;20288;-80
2023/05/31 12:35:18;;;;;;;4.30;2.83;;;24.40;82.10;;;;;;5002889;28;20197;-80
2023/05/31 12:37:45;;;;;;;4.27;2.80;;;24.30;81.60;;;;;;5002902;28;20196;-78
2023/05/31 12:40:14;;;;;;;4.43;2.90;;;24.40;82.30;;;;;;4991045;28;20694;-78
2023/05/31 12:42:41;;;;;;;4.70;3.00;;;24.50;81.90;;;;;;4994526;28;20224;-77
2023/05/31 12:45:11;;;;;;;6.83;3.03;;;24.50;83.90;;;;;;4994500;28;20216;-77
2023/05/31 12:47:38;;;;;;;6.30;2.90;;;24.50;82.70;;;;;;4995697;28;20205;-78
2023/05/31 12:50:06;;;;;;;3.00;2.70;;;24.50;82.80;;;;;;4995491;28;20262;-77
2023/05/31 12:52:34;;;;;;;6.00;5.37;;;24.30;81.80;;;;;;4995665;28;20707;-77
2023/05/31 12:55:03;;;;;;;6.70;6.10;;;24.40;84.70;;;;;;4991549;28;20676;-77
2023/05/31 12:57:30;;;;;;;7.00;6.37;;;24.50;85.20;;;;;;4990922;28;20205;-76
2023/05/31 13:00:01;;;;;;;7.10;6.40;;;24.40;81.70;;;;;;4995228;28;20201;-77
2023/05/31 13:02:29;;;;;;;6.80;6.20;;;24.30;83.70;;;;;;4994005;28;20288;-75
2023/05/31 13:04:56;;;;;;;6.93;6.33;;;24.20;82.80;;;;;;4994521;28;20239;-76
2023/05/31 13:07:23;;;;;;;7.07;6.37;;;24.30;85.70;;;;;;4996014;28;20201;-78
2023/05/31 13:09:50;;;;;;;7.63;6.30;;;24.30;86.20;;;;;;5001615;28;20259;-78
2023/05/31 13:12:18;;;;;;;7.13;6.43;;;24.30;82.60;;;;;;4994294;28;20222;-77
2023/05/31 13:14:45;;;;;;;5.90;2.93;;;24.20;82.80;;;;;;4993078;28;20772;-79
2023/05/31 13:17:12;;;;;;;5.23;3.10;;;24.10;82.70;;;;;;4990316;28;20236;-77
2023/05/31 13:19:40;;;;;;;6.27;3.30;;;24.10;80.70;;;;;;4995082;28;20243;-76